sensor_id;sensor_type;location;lat;lon;timestamp;pressure;altitude;pressure_sealevel;temperature;humidity
65557;BME280;52200;53.490;14.376;2023-06-10T00:02:10;101632.84;;;13.60;89.28
65557;BME280;52200;53.490;14.376;2023-06-10T00:04:35;101635.25;;;13.66;89.61
65557;BME280;52200;53.490;14.376;2023-06-10T00:07:04;101640.22;;;13.73;89.37
65557;BME280;52200;53.490;14.376;2023-06-10T00:09:34;101635.47;;;13.92;88.43
65557;BME280;52200;53.490;14.376;2023-06-10T00:12:02;101637.00;;;13.64;88.65
65557;BME280;52200;53.490;14.376;2023-06-10T00:14:27;101643.69;;;13.68;89.03
65557;BME280;52200;53.490;14.376;2023-06-10T00:16:53;101634.56;;;13.60;89.38
65557;BME280;52200;53.490;14.376;2023-06-10T00:19:18;101638.13;;;13.54;89.57
65557;BME280;52200;53.490;14.376;2023-06-10T00:21:44;101640.22;;;13.71;88.95
65557;BME280;52200;53.490;14.376;2023-06-10T00:24:10;101638.13;;;13.52;89.68
65557;BME280;52200;53.490;14.376;2023-06-10T00:26:38;101641.91;;;13.72;89.02
65557;BME280;52200;53.490;14.376;2023-06-10T00:29:03;101638.72;;;13.64;88.88
65557;BME280;52200;53.490;14.376;2023-06-10T00:31:28;101646.53;;;13.58;88.95
65557;BME280;52200;53.490;14.376;2023-06-10T00:33:54;101648.19;;;13.59;89.28
65557;BME280;52200;53.490;14.376;2023-06-10T00:36:19;101648.28;;;13.56;89.59
65557;BME280;52200;53.490;14.376;2023-06-10T00:38:44;101648.50;;;13.46;89.34
65557;BME280;52200;53.490;14.376;2023-06-10T00:41:10;101642.41;;;13.52;88.97
65557;BME280;52200;53.490;14.376;2023-06-10T00:43:35;101645.28;;;13.38;89.16
65557;BME280;52200;53.490;14.376;2023-06-10T00:46:01;101637.72;;;13.33;88.88
65557;BME280;52200;53.490;14.376;2023-06-10T00:48:27;101635.34;;;13.26;89.98
65557;BME280;52200;53.490;14.376;2023-06-10T00:50:53;101647.38;;;13.20;89.64
65557;BME280;52200;53.490;14.376;2023-06-10T00:53:18;101655.19;;;13.13;90.28
65557;BME280;52200;53.490;14.376;2023-06-10T00:55:44;101651.22;;;12.99;90.21
65557;BME280;52200;53.490;14.376;2023-06-10T00:58:10;101659.13;;;12.87;91.24
65557;BME280;52200;53.490;14.376;2023-06-10T01:00:36;101658.13;;;12.94;91.03
65557;BME280;52200;53.490;14.376;2023-06-10T01:03:02;101656.41;;;12.96;90.78
65557;BME280;52200;53.490;14.376;2023-06-10T01:05:27;101662.31;;;12.98;90.82
65557;BME280;52200;53.490;14.376;2023-06-10T01:10:57;101665.00;;;12.90;91.35
65557;BME280;52200;53.490;14.376;2023-06-10T01:13:25;101663.28;;;12.93;90.64
65557;BME280;52200;53.490;14.376;2023-06-10T01:15:55;101657.91;;;13.05;90.06
65557;BME280;52200;53.490;14.376;2023-06-10T01:18:21;101666.69;;;12.92;90.09
65557;BME280;52200;53.490;14.376;2023-06-10T01:20:47;101657.28;;;12.95;90.25
65557;BME280;52200;53.490;14.376;2023-06-10T01:23:14;101660.69;;;12.94;90.17
65557;BME280;52200;53.490;14.376;2023-06-10T01:26:02;101651.75;;;12.74;91.24
65557;BME280;52200;53.490;14.376;2023-06-10T01:28:35;101643.56;;;13.01;89.96
65557;BME280;52200;53.490;14.376;2023-06-10T01:31:23;101649.56;;;12.97;90.02
65557;BME280;52200;53.490;14.376;2023-06-10T01:33:59;101652.03;;;13.01;89.75
65557;BME280;52200;53.490;14.376;2023-06-10T01:36:26;101650.53;;;12.93;90.32
65557;BME280;52200;53.490;14.376;2023-06-10T01:38:53;101647.97;;;12.93;89.69
65557;BME280;52200;53.490;14.376;2023-06-10T01:41:19;101649.72;;;12.90;89.84
65557;BME280;52200;53.490;14.376;2023-06-10T01:43:47;101646.34;;;12.90;89.84
65557;BME280;52200;53.490;14.376;2023-06-10T01:46:13;101646.69;;;12.73;90.26
65557;BME280;52200;53.490;14.376;2023-06-10T01:48:38;101644.59;;;12.51;91.86
65557;BME280;52200;53.490;14.376;2023-06-10T01:51:05;101653.81;;;12.57;91.62
65557;BME280;52200;53.490;14.376;2023-06-10T01:53:30;101652.81;;;12.64;91.33
65557;BME280;52200;53.490;14.376;2023-06-10T01:55:56;101651.66;;;12.37;91.60
65557;BME280;52200;53.490;14.376;2023-06-10T01:58:21;101648.38;;;12.32;91.72
65557;BME280;52200;53.490;14.376;2023-06-10T02:00:47;101651.69;;;12.35;91.44
65557;BME280;52200;53.490;14.376;2023-06-10T02:03:12;101645.81;;;12.32;91.75
65557;BME280;52200;53.490;14.376;2023-06-10T02:05:37;101652.81;;;12.20;92.04
65557;BME280;52200;53.490;14.376;2023-06-10T02:08:03;101654.84;;;12.03;93.13
65557;BME280;52200;53.490;14.376;2023-06-10T02:10:28;101656.78;;;11.85;93.73
65557;BME280;52200;53.490;14.376;2023-06-10T02:12:54;101653.38;;;11.86;94.76
65557;BME280;52200;53.490;14.376;2023-06-10T02:15:20;101654.25;;;11.85;93.73
65557;BME280;52200;53.490;14.376;2023-06-10T02:17:45;101654.94;;;11.97;93.91
65557;BME280;52200;53.490;14.376;2023-06-10T02:20:11;101655.06;;;11.87;93.79
65557;BME280;52200;53.490;14.376;2023-06-10T02:22:37;101655.41;;;12.17;93.29
65557;BME280;52200;53.490;14.376;2023-06-10T02:25:03;101667.25;;;12.20;92.52
65557;BME280;52200;53.490;14.376;2023-06-10T02:27:29;101667.13;;;12.26;92.17
65557;BME280;52200;53.490;14.376;2023-06-10T02:29:56;101666.94;;;12.37;91.91
65557;BME280;52200;53.490;14.376;2023-06-10T02:32:21;101671.16;;;12.39;92.08
65557;BME280;52200;53.490;14.376;2023-06-10T02:34:47;101668.59;;;12.39;91.24
65557;BME280;52200;53.490;14.376;2023-06-10T02:37:14;101663.50;;;12.39;91.79
65557;BME280;52200;53.490;14.376;2023-06-10T02:39:39;101667.88;;;12.33;91.70
65557;BME280;52200;53.490;14.376;2023-06-10T02:42:05;101663.06;;;12.17;92.15
65557;BME280;52200;53.490;14.376;2023-06-10T02:44:31;101668.25;;;12.11;92.80
65557;BME280;52200;53.490;14.376;2023-06-10T02:46:57;101666.63;;;12.08;93.11
65557;BME280;52200;53.490;14.376;2023-06-10T02:49:22;101668.72;;;12.33;92.04
65557;BME280;52200;53.490;14.376;2023-06-10T02:51:47;101670.19;;;12.45;90.96
65557;BME280;52200;53.490;14.376;2023-06-10T02:54:13;101676.16;;;12.44;90.92
65557;BME280;52200;53.490;14.376;2023-06-10T02:56:38;101663.06;;;12.17;91.75
65557;BME280;52200;53.490;14.376;2023-06-10T02:59:07;101665.97;;;12.44;91.31
65557;BME280;52200;53.490;14.376;2023-06-10T03:01:33;101671.06;;;12.44;90.93
65557;BME280;52200;53.490;14.376;2023-06-10T03:04:00;101680.00;;;12.21;92.16
65557;BME280;52200;53.490;14.376;2023-06-10T03:06:25;101674.78;;;12.28;91.55
65557;BME280;52200;53.490;14.376;2023-06-10T03:08:51;101676.72;;;12.13;92.92
65557;BME280;52200;53.490;14.376;2023-06-10T03:11:16;101679.38;;;12.07;93.08
65557;BME280;52200;53.490;14.376;2023-06-10T03:13:42;101680.63;;;12.33;92.21
65557;BME280;52200;53.490;14.376;2023-06-10T03:16:07;101680.25;;;12.53;90.77
65557;BME280;52200;53.490;14.376;2023-06-10T03:18:33;101678.09;;;12.31;92.04
65557;BME280;52200;53.490;14.376;2023-06-10T03:20:58;101672.97;;;12.33;91.29
65557;BME280;52200;53.490;14.376;2023-06-10T03:23:24;101681.50;;;12.32;92.06
65557;BME280;52200;53.490;14.376;2023-06-10T03:25:49;101674.09;;;12.16;91.66
65557;BME280;52200;53.490;14.376;2023-06-10T03:28:14;101675.78;;;12.17;92.75
65557;BME280;52200;53.490;14.376;2023-06-10T03:30:40;101686.41;;;12.41;91.86
65557;BME280;52200;53.490;14.376;2023-06-10T03:33:05;101690.56;;;12.47;91.54
65557;BME280;52200;53.490;14.376;2023-06-10T03:35:31;101686.84;;;12.62;90.05
65557;BME280;52200;53.490;14.376;2023-06-10T03:37:57;101686.41;;;12.41;91.28
65557;BME280;52200;53.490;14.376;2023-06-10T03:40:23;101684.28;;;12.63;90.47
65557;BME280;52200;53.490;14.376;2023-06-10T03:42:48;101680.28;;;12.51;90.68
65557;BME280;52200;53.490;14.376;2023-06-10T03:45:13;101687.34;;;12.37;91.25
65557;BME280;52200;53.490;14.376;2023-06-10T03:47:39;101686.22;;;12.50;90.73
65557;BME280;52200;53.490;14.376;2023-06-10T03:50:06;101686.03;;;12.60;89.98
65557;BME280;52200;53.490;14.376;2023-06-10T03:52:33;101686.94;;;12.58;90.33
65557;BME280;52200;53.490;14.376;2023-06-10T03:54:58;101689.53;;;12.55;90.28
65557;BME280;52200;53.490;14.376;2023-06-10T03:57:24;101694.34;;;12.71;89.18
65557;BME280;52200;53.490;14.376;2023-06-10T03:59:49;101695.69;;;12.45;90.55
65557;BME280;52200;53.490;14.376;2023-06-10T04:02:15;101696.22;;;12.61;90.46
65557;BME280;52200;53.490;14.376;2023-06-10T04:04:41;101697.97;;;12.59;90.21
65557;BME280;52200;53.490;14.376;2023-06-10T04:07:06;101694.00;;;12.86;89.77
65557;BME280;52200;53.490;14.376;2023-06-10T04:09:33;101694.56;;;13.01;88.67
65557;BME280;52200;53.490;14.376;2023-06-10T04:11:58;101696.88;;;13.13;88.55
65557;BME280;52200;53.490;14.376;2023-06-10T04:14:24;101696.78;;;13.16;88.35
65557;BME280;52200;53.490;14.376;2023-06-10T04:16:49;101701.16;;;13.50;87.10
65557;BME280;52200;53.490;14.376;2023-06-10T04:19:15;101700.66;;;13.72;85.86
65557;BME280;52200;53.490;14.376;2023-06-10T04:21:41;101697.78;;;13.84;85.20
65557;BME280;52200;53.490;14.376;2023-06-10T04:24:07;101699.94;;;14.01;84.79
65557;BME280;52200;53.490;14.376;2023-06-10T04:26:35;101704.84;;;14.09;84.59
65557;BME280;52200;53.490;14.376;2023-06-10T04:29:00;101703.91;;;14.12;83.44
65557;BME280;52200;53.490;14.376;2023-06-10T04:31:25;101705.88;;;14.02;83.63
65557;BME280;52200;53.490;14.376;2023-06-10T04:33:51;101709.13;;;14.09;83.92
65557;BME280;52200;53.490;14.376;2023-06-10T04:36:16;101710.75;;;14.11;83.54
65557;BME280;52200;53.490;14.376;2023-06-10T04:38:42;101717.34;;;14.20;83.43
65557;BME280;52200;53.490;14.376;2023-06-10T04:41:07;101715.44;;;14.28;82.86
65557;BME280;52200;53.490;14.376;2023-06-10T04:43:33;101715.94;;;14.41;82.52
65557;BME280;52200;53.490;14.376;2023-06-10T04:45:58;101711.41;;;14.51;82.80
65557;BME280;52200;53.490;14.376;2023-06-10T04:48:23;101715.88;;;14.44;82.31
65557;BME280;52200;53.490;14.376;2023-06-10T04:50:49;101719.56;;;14.32;82.17
65557;BME280;52200;53.490;14.376;2023-06-10T04:53:15;101720.97;;;14.44;82.08
65557;BME280;52200;53.490;14.376;2023-06-10T04:55:42;101724.09;;;14.56;81.94
65557;BME280;52200;53.490;14.376;2023-06-10T04:58:07;101720.41;;;14.66;82.17
65557;BME280;52200;53.490;14.376;2023-06-10T05:00:32;101724.59;;;14.70;80.81
65557;BME280;52200;53.490;14.376;2023-06-10T05:02:58;101723.31;;;14.83;81.33
65557;BME280;52200;53.490;14.376;2023-06-10T05:05:23;101729.78;;;14.97;80.27
65557;BME280;52200;53.490;14.376;2023-06-10T05:07:48;101726.25;;;15.01;80.08
65557;BME280;52200;53.490;14.376;2023-06-10T05:10:14;101731.19;;;14.77;81.55
65557;BME280;52200;53.490;14.376;2023-06-10T05:12:40;101735.28;;;14.83;80.44
65557;BME280;52200;53.490;14.376;2023-06-10T05:15:07;101733.91;;;14.71;81.30
65557;BME280;52200;53.490;14.376;2023-06-10T05:17:33;101739.13;;;14.98;81.14
65557;BME280;52200;53.490;14.376;2023-06-10T05:19:58;101739.59;;;14.82;80.60
65557;BME280;52200;53.490;14.376;2023-06-10T05:22:24;101741.50;;;15.04;80.72
65557;BME280;52200;53.490;14.376;2023-06-10T05:24:50;101745.91;;;15.29;79.97
65557;BME280;52200;53.490;14.376;2023-06-10T05:27:16;101741.44;;;15.36;79.25
65557;BME280;52200;53.490;14.376;2023-06-10T05:29:41;101738.09;;;15.34;79.13
65557;BME280;52200;53.490;14.376;2023-06-10T05:32:07;101746.97;;;15.50;79.54
65557;BME280;52200;53.490;14.376;2023-06-10T05:34:33;101733.69;;;15.66;79.46
65557;BME280;52200;53.490;14.376;2023-06-10T05:36:58;101737.41;;;15.84;77.87
65557;BME280;52200;53.490;14.376;2023-06-10T05:39:24;101741.38;;;15.94;78.13
65557;BME280;52200;53.490;14.376;2023-06-10T05:41:49;101739.84;;;16.14;77.11
65557;BME280;52200;53.490;14.376;2023-06-10T05:44:15;101739.75;;;16.17;77.19
65557;BME280;52200;53.490;14.376;2023-06-10T05:46:40;101747.84;;;16.30;77.15
65557;BME280;52200;53.490;14.376;2023-06-10T05:49:05;101740.44;;;16.47;75.79
65557;BME280;52200;53.490;14.376;2023-06-10T05:51:31;101744.31;;;16.57;75.16
65557;BME280;52200;53.490;14.376;2023-06-10T05:53:56;101742.81;;;16.75;74.91
65557;BME280;52200;53.490;14.376;2023-06-10T05:56:21;101741.84;;;17.48;73.80
65557;BME280;52200;53.490;14.376;2023-06-10T05:58:48;101738.16;;;18.39;70.78
65557;BME280;52200;53.490;14.376;2023-06-10T06:01:14;101746.81;;;19.51;67.75
65557;BME280;52200;53.490;14.376;2023-06-10T06:03:39;101743.41;;;21.20;64.14
65557;BME280;52200;53.490;14.376;2023-06-10T06:06:05;101736.50;;;22.97;59.85
65557;BME280;52200;53.490;14.376;2023-06-10T06:08:30;101744.56;;;23.60;56.74
65557;BME280;52200;53.490;14.376;2023-06-10T06:10:56;101742.78;;;24.13;56.27
65557;BME280;52200;53.490;14.376;2023-06-10T06:13:21;101735.72;;;25.03;53.85
65557;BME280;52200;53.490;14.376;2023-06-10T06:15:47;101733.31;;;25.95;51.84
65557;BME280;52200;53.490;14.376;2023-06-10T06:18:12;101735.09;;;26.06;50.33
65557;BME280;52200;53.490;14.376;2023-06-10T06:20:37;101739.31;;;25.73;51.60
65557;BME280;52200;53.490;14.376;2023-06-10T06:23:03;101738.53;;;25.24;51.99
65557;BME280;52200;53.490;14.376;2023-06-10T06:25:28;101748.50;;;25.06;52.99
65557;BME280;52200;53.490;14.376;2023-06-10T06:27:54;101744.31;;;26.44;50.99
65557;BME280;52200;53.490;14.376;2023-06-10T06:30:19;101745.84;;;26.81;49.92
65557;BME280;52200;53.490;14.376;2023-06-10T06:32:45;101750.41;;;27.21;48.83
65557;BME280;52200;53.490;14.376;2023-06-10T06:35:10;101748.59;;;27.96;47.29
65557;BME280;52200;53.490;14.376;2023-06-10T06:37:36;101744.31;;;26.55;47.76
65557;BME280;52200;53.490;14.376;2023-06-10T06:40:01;101742.19;;;24.97;52.03
65557;BME280;52200;53.490;14.376;2023-06-10T06:42:26;101752.31;;;23.87;53.38
65557;BME280;52200;53.490;14.376;2023-06-10T06:44:52;101762.19;;;23.00;55.86
65557;BME280;52200;53.490;14.376;2023-06-10T06:47:17;101748.03;;;22.20;58.90
65557;BME280;52200;53.490;14.376;2023-06-10T06:49:48;101758.50;;;21.58;60.02
65557;BME280;52200;53.490;14.376;2023-06-10T06:52:14;101757.94;;;21.37;60.54
65557;BME280;52200;53.490;14.376;2023-06-10T06:54:40;101767.00;;;20.98;61.39
65557;BME280;52200;53.490;14.376;2023-06-10T06:57:05;101761.72;;;20.99;62.39
65557;BME280;52200;53.490;14.376;2023-06-10T06:59:32;101763.56;;;21.13;62.32
65557;BME280;52200;53.490;14.376;2023-06-10T07:01:57;101767.78;;;21.46;64.15
65557;BME280;52200;53.490;14.376;2023-06-10T07:04:23;101767.44;;;21.52;60.99
65557;BME280;52200;53.490;14.376;2023-06-10T07:06:48;101768.28;;;21.37;61.81
65557;BME280;52200;53.490;14.376;2023-06-10T07:09:14;101765.44;;;21.41;61.37
65557;BME280;52200;53.490;14.376;2023-06-10T07:11:39;101769.72;;;21.73;62.35
65557;BME280;52200;53.490;14.376;2023-06-10T07:14:07;101771.75;;;21.98;61.74
65557;BME280;52200;53.490;14.376;2023-06-10T07:16:32;101771.38;;;22.04;60.18
65557;BME280;52200;53.490;14.376;2023-06-10T07:18:57;101773.88;;;22.06;60.72
65557;BME280;52200;53.490;14.376;2023-06-10T07:21:23;101772.13;;;22.21;61.02
65557;BME280;52200;53.490;14.376;2023-06-10T07:23:49;101761.63;;;22.38;60.95
65557;BME280;52200;53.490;14.376;2023-06-10T07:26:17;101770.69;;;22.60;59.47
65557;BME280;52200;53.490;14.376;2023-06-10T07:28:42;101768.47;;;22.68;59.22
65557;BME280;52200;53.490;14.376;2023-06-10T07:31:08;101768.84;;;23.04;59.39
65557;BME280;52200;53.490;14.376;2023-06-10T07:33:34;101770.94;;;23.26;62.06
65557;BME280;52200;53.490;14.376;2023-06-10T07:35:59;101763.94;;;23.41;63.32
65557;BME280;52200;53.490;14.376;2023-06-10T07:38:25;101769.69;;;23.59;60.33
65557;BME280;52200;53.490;14.376;2023-06-10T07:40:51;101758.50;;;23.85;59.09
65557;BME280;52200;53.490;14.376;2023-06-10T07:43:17;101765.00;;;23.92;58.22
65557;BME280;52200;53.490;14.376;2023-06-10T07:45:43;101767.50;;;23.93;59.02
65557;BME280;52200;53.490;14.376;2023-06-10T07:48:08;101762.38;;;23.39;57.67
65557;BME280;52200;53.490;14.376;2023-06-10T07:50:34;101765.09;;;23.50;58.31
65557;BME280;52200;53.490;14.376;2023-06-10T07:52:59;101768.59;;;23.36;57.95
65557;BME280;52200;53.490;14.376;2023-06-10T07:55:25;101761.88;;;23.19;58.69
65557;BME280;52200;53.490;14.376;2023-06-10T07:57:53;101766.06;;;23.62;58.63
65557;BME280;52200;53.490;14.376;2023-06-10T08:00:19;101764.91;;;23.53;57.87
65557;BME280;52200;53.490;14.376;2023-06-10T08:02:45;101770.66;;;23.71;58.44
65557;BME280;52200;53.490;14.376;2023-06-10T08:05:10;101764.47;;;24.25;59.48
65557;BME280;52200;53.490;14.376;2023-06-10T08:07:36;101765.78;;;24.57;56.44
65557;BME280;52200;53.490;14.376;2023-06-10T08:10:02;101766.19;;;24.63;56.13
65557;BME280;52200;53.490;14.376;2023-06-10T08:12:27;101761.00;;;24.76;55.41
65557;BME280;52200;53.490;14.376;2023-06-10T08:14:53;101759.97;;;24.40;55.61
65557;BME280;52200;53.490;14.376;2023-06-10T08:17:20;101767.69;;;24.42;57.00
65557;BME280;52200;53.490;14.376;2023-06-10T08:19:45;101760.28;;;24.74;57.69
65557;BME280;52200;53.490;14.376;2023-06-10T08:22:10;101760.00;;;24.90;56.62
65557;BME280;52200;53.490;14.376;2023-06-10T08:24:36;101765.31;;;25.13;53.69
65557;BME280;52200;53.490;14.376;2023-06-10T08:27:01;101765.66;;;25.08;54.55
65557;BME280;52200;53.490;14.376;2023-06-10T08:29:27;101761.16;;;25.10;54.34
65557;BME280;52200;53.490;14.376;2023-06-10T08:31:52;101768.75;;;25.14;53.81
65557;BME280;52200;53.490;14.376;2023-06-10T08:34:17;101766.25;;;25.12;55.32
65557;BME280;52200;53.490;14.376;2023-06-10T08:36:43;101768.22;;;25.46;54.64
65557;BME280;52200;53.490;14.376;2023-06-10T08:39:09;101766.16;;;25.73;54.02
65557;BME280;52200;53.490;14.376;2023-06-10T08:41:40;101767.63;;;25.89;55.31
65557;BME280;52200;53.490;14.376;2023-06-10T08:44:16;101772.06;;;26.22;53.20
65557;BME280;52200;53.490;14.376;2023-06-10T08:46:45;101766.09;;;26.66;54.51
65557;BME280;52200;53.490;14.376;2023-06-10T08:49:17;101774.06;;;26.30;52.02
65557;BME280;52200;53.490;14.376;2023-06-10T08:51:42;101769.97;;;25.92;52.88
65557;BME280;52200;53.490;14.376;2023-06-10T08:54:15;101785.34;;;25.84;54.24
65557;BME280;52200;53.490;14.376;2023-06-10T08:56:44;101771.25;;;25.86;52.45
65557;BME280;52200;53.490;14.376;2023-06-10T08:59:13;101783.91;;;25.80;53.32
65557;BME280;52200;53.490;14.376;2023-06-10T09:01:42;101779.50;;;26.27;53.29
65557;BME280;52200;53.490;14.376;2023-06-10T09:04:07;101778.66;;;26.72;52.75
65557;BME280;52200;53.490;14.376;2023-06-10T09:06:33;101778.66;;;26.83;53.12
65557;BME280;52200;53.490;14.376;2023-06-10T09:08:59;101781.47;;;27.03;50.86
65557;BME280;52200;53.490;14.376;2023-06-10T09:11:25;101774.50;;;26.92;49.43
65557;BME280;52200;53.490;14.376;2023-06-10T09:13:50;101774.22;;;26.95;53.68
65557;BME280;52200;53.490;14.376;2023-06-10T09:16:16;101775.34;;;27.14;50.27
65557;BME280;52200;53.490;14.376;2023-06-10T09:18:42;101776.16;;;26.70;49.54
65557;BME280;52200;53.490;14.376;2023-06-10T09:21:07;101775.19;;;26.83;49.28
65557;BME280;52200;53.490;14.376;2023-06-10T09:23:33;101770.25;;;26.80;49.72
65557;BME280;52200;53.490;14.376;2023-06-10T09:25:59;101768.59;;;27.23;51.15
65557;BME280;52200;53.490;14.376;2023-06-10T09:28:25;101764.16;;;27.02;49.72
65557;BME280;52200;53.490;14.376;2023-06-10T09:31:02;101766.66;;;26.92;49.78
65557;BME280;52200;53.490;14.376;2023-06-10T09:33:27;101764.91;;;27.25;51.54
65557;BME280;52200;53.490;14.376;2023-06-10T09:35:53;101770.03;;;27.15;48.28
65557;BME280;52200;53.490;14.376;2023-06-10T09:38:21;101756.09;;;26.94;49.89
65557;BME280;52200;53.490;14.376;2023-06-10T09:40:54;101764.41;;;26.87;48.62
65557;BME280;52200;53.490;14.376;2023-06-10T09:43:20;101759.38;;;27.07;47.79
65557;BME280;52200;53.490;14.376;2023-06-10T09:45:50;101758.53;;;27.39;50.19
65557;BME280;52200;53.490;14.376;2023-06-10T09:48:18;101754.69;;;27.22;47.64
65557;BME280;52200;53.490;14.376;2023-06-10T09:50:44;101752.53;;;27.27;47.95
65557;BME280;52200;53.490;14.376;2023-06-10T09:53:10;101759.69;;;27.25;46.40
65557;BME280;52200;53.490;14.376;2023-06-10T09:55:38;101745.59;;;27.49;45.52
65557;BME280;52200;53.490;14.376;2023-06-10T09:58:04;101763.69;;;27.29;46.25
65557;BME280;52200;53.490;14.376;2023-06-10T10:00:32;101755.84;;;27.29;45.32
65557;BME280;52200;53.490;14.376;2023-06-10T10:02:58;101759.75;;;27.35;46.04
65557;BME280;52200;53.490;14.376;2023-06-10T10:05:23;101760.22;;;27.61;49.47
65557;BME280;52200;53.490;14.376;2023-06-10T10:07:49;101765.88;;;27.88;47.35
65557;BME280;52200;53.490;14.376;2023-06-10T10:10:17;101760.47;;;27.58;45.16
65557;BME280;52200;53.490;14.376;2023-06-10T10:12:47;101761.09;;;27.72;46.79
65557;BME280;52200;53.490;14.376;2023-06-10T10:15:12;101756.97;;;28.21;46.75
65557;BME280;52200;53.490;14.376;2023-06-10T10:17:48;101750.31;;;28.48;45.31
65557;BME280;52200;53.490;14.376;2023-06-10T10:20:17;101750.16;;;28.40;45.20
65557;BME280;52200;53.490;14.376;2023-06-10T10:22:46;101750.16;;;28.40;44.79
65557;BME280;52200;53.490;14.376;2023-06-10T10:25:28;101750.34;;;28.58;44.94
65557;BME280;52200;53.490;14.376;2023-06-10T10:28:02;101751.44;;;28.55;44.21
65557;BME280;52200;53.490;14.376;2023-06-10T10:30:37;101752.72;;;28.71;45.00
65557;BME280;52200;53.490;14.376;2023-06-10T10:33:07;101744.47;;;28.25;45.14
65557;BME280;52200;53.490;14.376;2023-06-10T10:35:36;101749.31;;;28.90;45.86
65557;BME280;52200;53.490;14.376;2023-06-10T10:38:02;101753.31;;;28.94;42.57
65557;BME280;52200;53.490;14.376;2023-06-10T10:40:28;101748.34;;;28.71;42.89
65557;BME280;52200;53.490;14.376;2023-06-10T10:42:56;101744.19;;;28.88;46.23
65557;BME280;52200;53.490;14.376;2023-06-10T10:45:22;101736.09;;;28.82;43.26
65557;BME280;52200;53.490;14.376;2023-06-10T10:47:52;101738.63;;;28.62;44.94
65557;BME280;52200;53.490;14.376;2023-06-10T10:50:19;101733.47;;;28.91;45.55
65557;BME280;52200;53.490;14.376;2023-06-10T10:53:03;101735.94;;;28.93;44.18
65557;BME280;52200;53.490;14.376;2023-06-10T10:55:29;101736.22;;;28.80;44.07
65557;BME280;52200;53.490;14.376;2023-06-10T10:58:05;101736.78;;;28.74;43.68
65557;BME280;52200;53.490;14.376;2023-06-10T11:00:48;101743.66;;;29.43;44.74
65557;BME280;52200;53.490;14.376;2023-06-10T11:03:16;101732.25;;;29.35;41.14
65557;BME280;52200;53.490;14.376;2023-06-10T11:05:46;101730.00;;;29.10;42.92
65557;BME280;52200;53.490;14.376;2023-06-10T11:11:32;101736.66;;;29.34;41.68
65557;BME280;52200;53.490;14.376;2023-06-10T11:14:04;101732.06;;;29.46;41.22
65557;BME280;52200;53.490;14.376;2023-06-10T11:16:42;101731.19;;;28.57;41.85
65557;BME280;52200;53.490;14.376;2023-06-10T11:19:08;101740.13;;;28.04;43.14
65557;BME280;52200;53.490;14.376;2023-06-10T11:21:59;101744.97;;;28.09;43.71
65557;BME280;52200;53.490;14.376;2023-06-10T11:24:25;101738.38;;;27.62;45.04
65557;BME280;52200;53.490;14.376;2023-06-10T11:26:51;101744.38;;;28.46;44.04
65557;BME280;52200;53.490;14.376;2023-06-10T11:29:16;101722.72;;;29.04;42.72
65557;BME280;52200;53.490;14.376;2023-06-10T11:31:49;101736.66;;;29.34;42.21
65557;BME280;52200;53.490;14.376;2023-06-10T11:34:15;101723.25;;;29.95;40.58
65557;BME280;52200;53.490;14.376;2023-06-10T11:36:48;101727.81;;;29.45;41.40
65557;BME280;52200;53.490;14.376;2023-06-10T11:39:14;101713.47;;;29.97;41.04
65557;BME280;52200;53.490;14.376;2023-06-10T11:41:40;101719.16;;;30.66;41.10
65557;BME280;52200;53.490;14.376;2023-06-10T11:44:10;101705.13;;;30.75;40.63
65557;BME280;52200;53.490;14.376;2023-06-10T11:46:36;101719.75;;;30.60;39.45
65557;BME280;52200;53.490;14.376;2023-06-10T11:49:02;101716.78;;;29.89;39.41
65557;BME280;52200;53.490;14.376;2023-06-10T11:51:31;101717.22;;;29.17;40.53
65557;BME280;52200;53.490;14.376;2023-06-10T11:53:57;101701.22;;;29.01;40.65
65557;BME280;52200;53.490;14.376;2023-06-10T11:56:25;101713.75;;;29.07;39.28
65557;BME280;52200;53.490;14.376;2023-06-10T11:58:55;101708.69;;;29.35;39.08
65557;BME280;52200;53.490;14.376;2023-06-10T12:01:21;101703.69;;;29.89;38.61
65557;BME280;52200;53.490;14.376;2023-06-10T12:03:48;101702.75;;;29.80;38.30
65557;BME280;52200;53.490;14.376;2023-06-10T12:06:13;101698.50;;;29.79;38.91
65557;BME280;52200;53.490;14.376;2023-06-10T12:08:43;101696.19;;;30.04;37.54
65557;BME280;52200;53.490;14.376;2023-06-10T12:11:08;101696.00;;;30.15;37.45
65557;BME280;52200;53.490;14.376;2023-06-10T12:13:34;101694.16;;;30.44;37.41
65557;BME280;52200;53.490;14.376;2023-06-10T12:16:09;101691.00;;;30.40;37.83
65557;BME280;52200;53.490;14.376;2023-06-10T12:18:35;101698.63;;;30.79;38.32
65557;BME280;52200;53.490;14.376;2023-06-10T12:21:00;101696.00;;;30.15;38.09
65557;BME280;52200;53.490;14.376;2023-06-10T12:23:26;101701.91;;;29.22;39.08
65557;BME280;52200;53.490;14.376;2023-06-10T12:25:53;101693.50;;;28.50;40.63
65557;BME280;52200;53.490;14.376;2023-06-10T12:28:22;101699.28;;;28.44;39.77
65557;BME280;52200;53.490;14.376;2023-06-10T12:30:48;101709.34;;;28.08;40.26
65557;BME280;52200;53.490;14.376;2023-06-10T12:33:20;101696.06;;;28.30;40.28
65557;BME280;52200;53.490;14.376;2023-06-10T12:35:50;101696.19;;;28.29;41.23
65557;BME280;52200;53.490;14.376;2023-06-10T12:38:25;101697.06;;;28.49;41.24
65557;BME280;52200;53.490;14.376;2023-06-10T12:40:54;101684.16;;;29.16;40.28
65557;BME280;52200;53.490;14.376;2023-06-10T12:43:26;101689.59;;;29.52;39.42
65557;BME280;52200;53.490;14.376;2023-06-10T12:45:51;101691.50;;;29.60;38.77